Time;durP1;ratioP1;P1;durP2;ratioP2;P2;SDS_P1;SDS_P2;PMS_P1;PMS_P2;Temp;Humidity;BMP_temperature;BMP_pressure;BME280_temperature;BME280_humidity;BME280_pressure;Samples;Min_cycle;Max_cycle;Signal;HPM_P1;HPM_P2
2021/05/09 00:01:46;;;;;;;;;30.00;25.50;;;;;3.30;81.98;100280.56;3581162;40;9433;-55
2021/05/09 00:04:13;;;;;;;;;34.25;27.00;;;;;3.52;82.14;100275.63;3581441;40;9403;-56
2021/05/09 00:06:40;;;;;;;;;28.00;23.75;;;;;3.44;82.76;100279.38;3581348;40;9533;-55
2021/05/09 00:09:07;;;;;;;;;37.00;24.00;;;;;3.31;82.67;100276.13;3579765;40;9793;-53
2021/05/09 00:11:34;;;;;;;;;33.75;26.50;;;;;3.42;82.09;100270.59;3581142;40;9478;-55
2021/05/09 00:14:01;;;;;;;;;31.00;26.00;;;;;3.69;81.84;100267.28;3584003;40;9372;-57
2021/05/09 00:16:29;;;;;;;;;24.75;20.75;;;;;3.56;81.17;100272.94;3580497;40;9624;-54
2021/05/09 00:18:56;;;;;;;;;28.50;24.75;;;;;3.56;82.16;100268.50;3579683;40;9893;-56
2021/05/09 00:21:23;;;;;;;;;34.25;30.75;;;;;3.27;82.73;100271.81;3586928;39;9399;-55
2021/05/09 00:23:50;;;;;;;;;28.75;28.75;;;;;3.36;82.12;100268.94;3579237;40;9745;-55
2021/05/09 00:26:17;;;;;;;;;33.75;27.75;;;;;3.28;81.67;100268.25;3579157;40;9286;-54
2021/05/09 00:28:44;;;;;;;;;34.00;23.75;;;;;3.06;82.60;100271.38;3580238;40;9444;-54
2021/05/09 00:31:10;;;;;;;;;21.75;20.50;;;;;2.83;82.84;100266.53;3581313;40;9992;-55
2021/05/09 00:33:38;;;;;;;;;35.25;26.00;;;;;3.03;82.91;100262.63;3581412;40;9349;-55
2021/05/09 00:36:05;;;;;;;;;35.75;29.50;;;;;2.72;83.26;100268.56;3582256;40;9472;-56
2021/05/09 00:38:32;;;;;;;;;35.50;26.75;;;;;2.93;83.60;100271.69;3580490;40;9286;-53
2021/05/09 00:41:00;;;;;;;;;27.25;23.00;;;;;2.60;83.26;100271.44;3581596;40;9243;-56
2021/05/09 00:43:27;;;;;;;;;25.75;21.25;;;;;2.77;83.39;100279.06;3579347;40;10312;-54
2021/05/09 00:45:54;;;;;;;;;27.25;20.75;;;;;3.22;82.89;100271.91;3581531;40;9498;-56
2021/05/09 00:48:21;;;;;;;;;28.25;23.00;;;;;2.55;83.26;100275.94;3579109;40;9581;-54
2021/05/09 00:50:48;;;;;;;;;20.50;17.00;;;;;2.62;83.20;100274.94;3588551;40;9657;-54
2021/05/09 00:53:22;;;;;;;;;17.75;15.50;;;;;2.57;84.20;100269.72;3580866;40;9351;-53
2021/05/09 00:55:49;;;;;;;;;18.75;17.00;;;;;2.54;84.17;100269.78;3586759;40;9277;-51
2021/05/09 00:58:18;;;;;;;;;25.00;20.00;;;;;2.26;84.37;100277.38;3586899;40;9535;-54
2021/05/09 01:00:46;;;;;;;;;26.75;21.75;;;;;2.57;84.27;100275.03;3579721;40;9929;-55
2021/05/09 01:03:15;;;;;;;;;31.75;20.75;;;;;2.62;83.78;100270.50;3586299;39;9267;-53
2021/05/09 01:05:42;;;;;;;;;27.25;19.00;;;;;3.10;82.50;100269.50;3588727;40;9317;-55
2021/05/09 01:08:09;;;;;;;;;30.00;26.00;;;;;3.10;82.52;100269.50;3579409;40;9495;-53
2021/05/09 01:10:36;;;;;;;;;28.00;23.00;;;;;2.94;82.87;100273.41;3586628;40;9403;-53
2021/05/09 01:13:03;;;;;;;;;24.00;18.25;;;;;2.71;84.34;100276.53;3581987;40;9249;-53
2021/05/09 01:15:31;;;;;;;;;24.50;20.00;;;;;2.82;83.17;100277.19;3581534;40;9423;-54
2021/05/09 01:17:58;;;;;;;;;30.00;21.25;;;;;2.62;84.79;100272.28;3580815;40;9779;-55
2021/05/09 01:20:34;;;;;;;;;30.00;19.25;;;;;2.90;83.76;100277.00;3580799;40;9374;-53
2021/05/09 01:23:02;;;;;;;;;20.00;18.25;;;;;3.47;81.32;100269.56;3581709;40;9351;-55
2021/05/09 01:25:29;;;;;;;;;31.75;25.75;;;;;3.01;83.15;100261.78;3578383;40;9524;-52
2021/05/09 01:27:57;;;;;;;;;27.50;24.25;;;;;2.64;84.45;100265.19;3584645;40;9415;-53
2021/05/09 01:30:25;;;;;;;;;28.75;23.50;;;;;2.46;85.43;100265.53;3579041;40;10208;-53
2021/05/09 01:32:52;;;;;;;;;28.00;21.00;;;;;3.07;83.13;100274.91;3580707;40;9346;-52
2021/05/09 01:35:20;;;;;;;;;31.00;23.75;;;;;2.89;84.76;100272.63;3581998;40;9657;-53
2021/05/09 01:37:46;;;;;;;;;29.75;25.25;;;;;3.23;83.48;100268.34;3581082;40;9434;-54
2021/05/09 01:40:15;;;;;;;;;29.75;22.50;;;;;3.38;82.93;100253.00;3578522;40;9977;-54
2021/05/09 01:42:43;;;;;;;;;29.50;21.00;;;;;3.29;83.11;100262.91;3585890;40;9687;-54
2021/05/09 01:45:12;;;;;;;;;25.00;20.75;;;;;2.93;83.72;100266.38;3589481;40;9407;-56
2021/05/09 01:47:39;;;;;;;;;28.75;21.50;;;;;2.85;85.15;100258.56;3582094;40;9388;-54
2021/05/09 01:50:17;;;;;;;;;31.00;25.00;;;;;3.12;83.94;100265.06;3588494;40;9236;-52
2021/05/09 01:52:44;;;;;;;;;29.00;20.00;;;;;2.91;84.24;100262.88;3591601;39;9344;-54
2021/05/09 01:55:18;;;;;;;;;26.00;17.00;;;;;2.51;85.57;100263.69;3581790;40;9492;-54
2021/05/09 01:57:46;;;;;;;;;23.25;20.00;;;;;2.15;86.28;100271.41;3579761;40;9288;-54
2021/05/09 02:00:18;;;;;;;;;27.25;20.00;;;;;2.22;85.88;100273.03;3581162;40;9634;-55
2021/05/09 02:02:46;;;;;;;;;31.75;21.50;;;;;2.45;86.28;100272.63;3580671;40;9259;-56
2021/05/09 02:05:15;;;;;;;;;32.50;22.00;;;;;2.59;84.16;100261.75;3589127;40;9306;-55
2021/05/09 02:07:42;;;;;;;;;28.00;18.00;;;;;2.51;82.79;100274.28;3582233;40;9244;-55
2021/05/09 02:10:11;;;;;;;;;23.25;23.25;;;;;2.18;84.41;100279.28;3578042;40;9605;-55
2021/05/09 02:12:38;;;;;;;;;25.25;22.50;;;;;2.21;84.96;100273.91;3579388;40;9313;-52
2021/05/09 02:15:09;;;;;;;;;35.00;25.25;;;;;1.92;85.19;100272.69;3581908;40;9304;-52
2021/05/09 02:17:37;;;;;;;;;29.25;25.25;;;;;1.73;86.29;100273.88;3578934;40;9226;-54
2021/05/09 02:20:08;;;;;;;;;24.50;19.75;;;;;1.92;86.89;100280.63;3581769;40;9613;-52
2021/05/09 02:22:35;;;;;;;;;16.75;16.50;;;;;1.90;85.23;100277.13;3587301;40;9632;-56
2021/05/09 02:25:03;;;;;;;;;29.00;27.50;;;;;2.11;85.20;100280.31;3581580;40;9361;-52
2021/05/09 02:27:30;;;;;;;;;35.00;29.25;;;;;2.17;84.76;100282.84;3582824;40;9294;-53
2021/05/09 02:29:57;;;;;;;;;25.75;22.00;;;;;2.00;84.91;100288.41;3586443;40;9412;-55
2021/05/09 02:32:24;;;;;;;;;26.25;24.75;;;;;2.23;85.55;100284.50;3575473;40;9287;-53
2021/05/09 02:34:52;;;;;;;;;40.50;24.25;;;;;2.33;84.71;100281.66;3582200;40;9321;-53
2021/05/09 02:37:18;;;;;;;;;25.75;25.50;;;;;2.53;83.72;100280.44;3580807;40;9300;-56
2021/05/09 02:39:46;;;;;;;;;28.25;23.50;;;;;2.34;85.05;100290.47;3578334;40;9239;-53
2021/05/09 02:42:13;;;;;;;;;33.75;25.25;;;;;1.62;86.06;100291.69;3580260;40;9363;-53
2021/05/09 02:44:39;;;;;;;;;27.00;24.75;;;;;2.07;85.55;100303.31;3582047;40;9266;-54
2021/05/09 02:47:07;;;;;;;;;28.25;26.25;;;;;1.53;87.63;100296.22;3581154;40;9825;-55
2021/05/09 02:49:34;;;;;;;;;39.50;27.00;;;;;1.22;89.00;100308.16;3579682;40;9276;-55
2021/05/09 02:52:01;;;;;;;;;35.75;27.25;;;;;1.61;88.02;100305.84;3580347;40;9296;-52
2021/05/09 02:54:29;;;;;;;;;25.50;21.50;;;;;2.04;87.19;100310.44;3582120;40;9257;-53
2021/05/09 02:56:56;;;;;;;;;30.75;23.75;;;;;2.26;85.09;100301.22;3580393;40;9443;-53
2021/05/09 02:59:23;;;;;;;;;32.25;27.75;;;;;2.09;85.72;100314.75;3581788;40;9258;-53
2021/05/09 03:01:54;;;;;;;;;36.75;29.50;;;;;2.00;87.40;100311.38;3575216;40;9769;-52
2021/05/09 03:04:21;;;;;;;;;16.25;10.50;;;;;1.89;86.90;100312.44;3579522;40;9234;-53
2021/05/09 03:06:48;;;;;;;;;48.25;29.50;;;;;2.31;85.70;100304.66;3578690;40;9239;-54
2021/05/09 03:09:15;;;;;;;;;31.00;24.00;;;;;2.00;85.50;100314.03;3579482;40;9270;-52
2021/05/09 03:11:41;;;;;;;;;22.25;19.50;;;;;1.70;87.76;100316.28;3581310;40;9228;-52
2021/05/09 03:14:08;;;;;;;;;36.50;29.00;;;;;1.94;87.08;100310.56;3581831;40;9702;-56
2021/05/09 03:16:35;;;;;;;;;33.25;27.00;;;;;1.97;87.12;100310.56;3580649;40;9265;-54
2021/05/09 03:19:02;;;;;;;;;34.75;25.25;;;;;2.07;86.71;100313.03;3579991;40;9238;-52
2021/05/09 03:21:29;;;;;;;;;38.50;29.25;;;;;2.51;86.05;100316.69;3579418;40;9254;-54
2021/05/09 03:23:56;;;;;;;;;26.50;25.25;;;;;2.46;85.80;100318.53;3580922;40;9423;-53
2021/05/09 03:26:22;;;;;;;;;10.75;1.75;;;;;2.40;85.74;100320.41;3583510;40;9601;-52
2021/05/09 03:28:49;;;;;;;;;32.00;28.50;;;;;2.43;86.26;100303.56;3587465;40;9483;-53
2021/05/09 03:31:16;;;;;;;;;35.25;26.00;;;;;2.11;87.22;100325.34;3580930;40;9914;-54
2021/05/09 03:33:43;;;;;;;;;29.50;25.50;;;;;2.63;85.14;100324.38;3580815;40;9280;-50
2021/05/09 03:36:10;;;;;;;;;31.50;26.00;;;;;2.50;86.08;100330.81;3583057;40;9777;-55
2021/05/09 03:38:37;;;;;;;;;30.00;23.00;;;;;2.68;85.90;100330.47;3580377;40;9288;-54
2021/05/09 03:41:03;;;;;;;;;38.25;29.00;;;;;2.58;85.80;100328.91;3582535;40;9290;-54
2021/05/09 03:43:30;;;;;;;;;35.00;24.50;;;;;2.90;85.03;100341.56;3579309;40;9431;-53
2021/05/09 03:45:57;;;;;;;;;32.25;25.75;;;;;2.99;85.23;100340.50;3577679;40;9273;-52
2021/05/09 03:48:24;;;;;;;;;30.25;24.50;;;;;3.03;85.08;100348.38;3580423;40;9249;-54
2021/05/09 03:50:51;;;;;;;;;43.00;32.00;;;;;3.12;84.00;100347.31;3583883;40;10208;-52
2021/05/09 03:53:18;;;;;;;;;29.50;27.00;;;;;3.23;84.53;100342.63;3578928;40;9258;-53
2021/05/09 03:55:44;;;;;;;;;35.50;30.25;;;;;3.26;84.50;100345.22;3588184;40;9567;-53
2021/05/09 03:58:11;;;;;;;;;33.00;26.50;;;;;3.35;84.48;100343.31;3581088;40;9263;-54
2021/05/09 04:00:38;;;;;;;;;37.75;27.75;;;;;3.49;83.57;100346.53;3579937;40;9369;-55
2021/05/09 04:03:29;;;;;;;;;32.00;28.25;;;;;3.45;83.21;100350.13;3579828;40;9553;-53
2021/05/09 04:05:56;;;;;;;;;34.25;29.50;;;;;3.93;81.92;100348.16;3582057;40;9380;-57
2021/05/09 04:08:28;;;;;;;;;33.00;28.50;;;;;4.89;77.50;100345.72;3580159;40;10852;-57
2021/05/09 04:10:57;;;;;;;;;33.75;25.25;;;;;8.01;65.76;100341.38;3579753;40;10383;-57
2021/05/09 04:13:24;;;;;;;;;54.00;40.50;;;;;9.01;60.97;100343.41;3580866;40;10608;-55
2021/05/09 04:15:52;;;;;;;;;29.00;26.00;;;;;10.70;54.56;100349.59;3581526;40;10227;-57
2021/05/09 04:18:19;;;;;;;;;32.33;24.67;;;;;11.61;51.75;100361.78;3577697;40;10220;-56
2021/05/09 04:20:46;;;;;;;;;31.00;27.00;;;;;8.55;58.10;100358.75;3579966;40;9871;-54
2021/05/09 04:23:18;;;;;;;;;28.00;20.33;;;;;5.57;71.10;100356.16;3580276;40;9984;-55
2021/05/09 04:25:51;;;;;;;;;25.33;19.33;;;;;5.35;71.74;100361.25;3578299;40;10036;-57
2021/05/09 04:28:19;;;;;;;;;26.33;24.00;;;;;5.30;72.76;100362.31;3579906;40;10247;-54
2021/05/09 04:30:47;;;;;;;;;40.00;32.33;;;;;5.28;73.14;100359.69;3581182;40;10313;-53
2021/05/09 04:33:15;;;;;;;;;37.33;30.00;;;;;5.44;73.39;100360.97;3570069;40;10139;-55
2021/05/09 04:35:45;;;;;;;;;36.67;34.67;;;;;5.43;73.14;100366.38;3584792;40;10255;-56
2021/05/09 04:38:13;;;;;;;;;36.00;29.50;;;;;5.73;71.98;100367.22;3579320;40;10420;-54
2021/05/09 04:40:40;;;;;;;;;30.33;24.00;;;;;5.66;72.92;100368.31;3578857;40;10243;-54
2021/05/09 04:43:16;;;;;;;;;32.33;24.67;;;;;6.00;71.29;100375.31;3588225;40;10327;-56
2021/05/09 04:45:49;;;;;;;;;30.33;27.33;;;;;6.02;71.72;100369.00;3579113;40;10198;-56
2021/05/09 04:48:16;;;;;;;;;32.33;26.33;;;;;6.28;70.65;100376.16;3579940;40;10286;-52
2021/05/09 04:50:44;;;;;;;;;29.33;25.00;;;;;6.47;70.63;100373.75;3586574;40;10230;-56
2021/05/09 04:53:34;;;;;;;;;31.00;26.67;;;;;6.76;70.23;100369.22;3580472;40;10171;-55
2021/05/09 04:56:06;;;;;;;;;31.67;26.33;;;;;9.79;60.67;100379.13;3579874;40;10296;-57
2021/05/09 04:58:39;;;;;;;;;34.33;24.33;;;;;14.73;46.10;100383.22;3581604;40;9989;-56
2021/05/09 05:01:09;;;;;;;;;25.33;24.33;;;;;14.76;45.37;100384.84;3582919;40;10394;-56
2021/05/09 05:03:37;;;;;;;;;27.00;22.50;;;;;12.44;50.18;100384.03;3579557;40;10760;-58
2021/05/09 05:06:05;;;;;;;;;25.00;23.25;;;;;9.35;58.84;100390.97;3579158;40;14057;-56
2021/05/09 05:08:33;;;;;;;;;23.50;21.50;;;;;8.13;63.55;100384.50;3580153;40;14033;-55
2021/05/09 05:11:04;;;;;;;;;28.33;26.33;;;;;9.61;61.93;100386.22;3586090;39;14068;-55
2021/05/09 05:13:34;;;;;;;;;25.00;23.67;;;;;13.39;49.84;100397.22;3581332;40;10460;-54
2021/05/09 05:16:06;;;;;;;;;24.50;22.25;;;;;10.29;56.95;100390.16;3589643;40;11383;-55
2021/05/09 05:18:34;;;;;;;;;28.33;24.00;;;;;10.93;56.94;100390.53;3580430;40;10249;-57
2021/05/09 05:21:05;;;;;;;;;24.75;21.25;;;;;9.27;60.51;100395.81;3587818;40;10991;-55
2021/05/09 05:23:35;;;;;;;;;28.33;24.33;;;;;8.53;63.83;100396.31;3589074;40;10821;-57
2021/05/09 05:26:06;;;;;;;;;32.00;27.00;;;;;9.26;61.95;100394.06;3588633;40;9973;-56
2021/05/09 05:28:33;;;;;;;;;29.00;27.00;;;;;10.09;61.03;100404.50;3582826;40;9948;-55
2021/05/09 05:31:00;;;;;;;;;27.00;22.67;;;;;13.03;52.62;100403.00;3590366;40;10822;-56
2021/05/09 05:33:31;;;;;;;;;28.33;27.33;;;;;13.41;50.54;100404.38;3581795;40;10576;-54
2021/05/09 05:36:01;;;;;;;;;28.50;23.75;;;;;12.02;53.19;100399.00;3579669;40;10620;-55
2021/05/09 05:38:28;;;;;;;;;29.50;24.00;;;;;10.73;59.00;100413.91;3588435;40;14068;-55
2021/05/09 05:40:56;;;;;;;;;30.75;27.25;;;;;10.17;58.73;100406.81;3581006;40;14074;-58
2021/05/09 05:43:31;;;;;;;;;31.00;26.00;;;;;9.91;60.77;100415.25;3579582;40;14716;-56
2021/05/09 05:46:01;;;;;;;;;34.33;29.33;;;;;9.67;62.75;100410.06;3586042;40;10040;-56
2021/05/09 05:48:29;;;;;;;;;37.33;29.00;;;;;9.84;61.72;100410.13;3582126;40;9964;-55
2021/05/09 05:50:57;;;;;;;;;25.67;24.67;;;;;9.90;62.18;100417.06;3582405;40;10188;-56
2021/05/09 05:53:27;;;;;;;;;31.67;24.00;;;;;10.02;61.90;100418.28;3581518;40;10009;-56
2021/05/09 05:55:54;;;;;;;;;34.00;23.33;;;;;10.70;60.42;100427.50;3582211;40;9907;-55
2021/05/09 05:58:21;;;;;;;;;27.33;25.33;;;;;10.97;58.32;100413.59;3580371;40;9933;-56
2021/05/09 06:00:49;;;;;;;;;30.00;25.33;;;;;11.33;59.17;100416.19;3580166;40;10518;-55
2021/05/09 06:03:18;;;;;;;;;18.50;17.25;;;;;11.28;60.16;100409.31;3577743;40;10628;-56
2021/05/09 06:05:46;;;;;;;;;28.75;26.50;;;;;11.55;59.22;100413.19;3581562;40;14018;-55
2021/05/09 06:08:16;;;;;;;;;25.25;20.00;;;;;11.65;58.04;100409.06;3589505;40;14055;-55
2021/05/09 06:10:44;;;;;;;;;23.25;14.75;;;;;11.78;56.66;100405.72;3581568;40;14031;-55
2021/05/09 06:13:12;;;;;;;;;24.00;16.50;;;;;11.93;56.43;100404.91;3580395;40;14063;-57
2021/05/09 06:15:38;;;;;;;;;19.75;15.25;;;;;12.33;55.63;100405.34;3589779;40;14586;-55
2021/05/09 06:18:06;;;;;;;;;17.50;16.25;;;;;12.68;54.19;100402.41;3582081;40;14240;-57
2021/05/09 06:20:33;;;;;;;;;15.00;14.50;;;;;12.58;53.77;100406.59;3581766;40;14063;-57
2021/05/09 06:23:04;;;;;;;;;20.75;15.75;;;;;13.15;53.00;100402.25;3579177;40;14039;-56
2021/05/09 06:25:34;;;;;;;;;13.75;11.00;;;;;13.06;52.91;100401.94;3580703;40;14051;-57
2021/05/09 06:28:01;;;;;;;;;16.75;15.75;;;;;13.43;53.41;100402.44;3581170;40;14174;-57
2021/05/09 06:30:28;;;;;;;;;14.00;13.25;;;;;13.49;51.78;100399.38;3579359;40;14564;-59
2021/05/09 06:32:55;;;;;;;;;21.25;13.25;;;;;14.24;50.96;100399.97;3580856;40;14025;-57
2021/05/09 06:35:23;;;;;;;;;16.75;14.75;;;;;14.34;50.44;100400.22;3589999;40;14073;-56
2021/05/09 06:37:52;;;;;;;;;12.75;10.00;;;;;14.33;49.15;100403.91;3581160;40;14056;-57
2021/05/09 06:40:22;;;;;;;;;12.00;10.75;;;;;15.12;49.35;100403.09;3580053;40;14634;-55
2021/05/09 06:43:01;;;;;;;;;11.00;9.00;;;;;15.53;47.83;100411.03;3587789;40;14205;-57
2021/05/09 06:45:30;;;;;;;;;9.75;7.00;;;;;14.93;45.47;100400.81;3579404;40;14062;-55
2021/05/09 06:47:59;;;;;;;;;12.00;7.00;;;;;15.79;44.93;100405.63;3580569;40;14084;-56
2021/05/09 06:50:29;;;;;;;;;7.50;6.50;;;;;16.15;43.51;100404.81;3578765;40;13983;-57
2021/05/09 06:52:57;;;;;;;;;7.50;6.00;;;;;16.13;42.18;100408.59;3581927;40;13961;-53
2021/05/09 06:55:25;;;;;;;;;9.00;5.25;;;;;16.08;41.83;100410.78;3580570;40;14032;-56
2021/05/09 06:57:52;;;;;;;;;9.25;5.50;;;;;16.27;41.11;100413.88;3581246;40;14123;-58
2021/05/09 07:00:21;;;;;;;;;8.75;5.00;;;;;16.70;41.04;100404.41;3577295;40;13988;-57
2021/05/09 07:02:48;;;;;;;;;7.25;6.50;;;;;16.61;40.12;100409.53;3580315;40;13974;-56
2021/05/09 07:05:16;;;;;;;;;5.75;5.75;;;;;15.92;39.55;100406.47;3580489;40;13967;-56
2021/05/09 07:07:47;;;;;;;;;6.75;5.00;;;;;16.06;38.70;100402.78;3579611;40;14120;-54
2021/05/09 07:10:14;;;;;;;;;6.25;5.75;;;;;16.79;38.20;100407.28;3579452;40;13922;-57
2021/05/09 07:12:41;;;;;;;;;5.25;5.00;;;;;16.98;38.13;100401.34;3581039;40;14020;-57
2021/05/09 07:15:09;;;;;;;;;10.00;7.00;;;;;17.33;37.78;100400.44;3580503;40;13955;-59
2021/05/09 07:17:40;;;;;;;;;9.00;6.00;;;;;16.70;37.59;100402.53;3579574;40;13936;-55
2021/05/09 07:20:08;;;;;;;;;12.00;5.00;;;;;16.84;38.13;100386.09;3587055;40;14092;-56
2021/05/09 07:22:41;;;;;;;;;7.00;4.00;;;;;16.88;38.15;100401.19;3583178;40;14038;-56
2021/05/09 07:25:09;;;;;;;;;6.25;5.00;;;;;17.30;37.54;100400.69;3578654;40;13980;-55
2021/05/09 07:27:36;;;;;;;;;9.25;7.00;;;;;17.69;37.57;100393.97;3581306;40;14453;-57
2021/05/09 07:30:04;;;;;;;;;7.50;6.00;;;;;17.49;37.08;100392.81;3583208;40;14018;-54
2021/05/09 07:32:31;;;;;;;;;11.50;7.25;;;;;17.54;36.87;100392.47;3581318;40;13934;-53
2021/05/09 07:34:58;;;;;;;;;7.50;6.25;;;;;17.90;36.77;100402.25;3579437;40;14050;-51
2021/05/09 07:37:25;;;;;;;;;9.25;6.00;;;;;18.08;35.87;100396.31;3577259;40;13438;-56
2021/05/09 07:39:52;;;;;;;;;6.00;5.25;;;;;17.77;36.33;100394.22;3579857;40;13952;-57
2021/05/09 07:42:19;;;;;;;;;9.75;6.00;;;;;17.13;35.56;100393.84;3579955;40;13887;-57
2021/05/09 07:44:45;;;;;;;;;7.75;5.00;;;;;17.26;35.10;100394.63;3578937;40;13910;-58
2021/05/09 07:47:12;;;;;;;;;7.00;6.25;;;;;17.46;34.97;100394.94;3582380;40;13934;-57
2021/05/09 07:49:39;;;;;;;;;10.25;7.00;;;;;17.88;35.57;100395.22;3578216;40;13899;-56
2021/05/09 07:52:06;;;;;;;;;8.00;6.00;;;;;17.65;35.39;100392.47;3580826;40;13939;-55
2021/05/09 07:54:33;;;;;;;;;8.75;7.00;;;;;17.80;34.76;100397.69;3582403;40;13897;-57
2021/05/09 07:56:59;;;;;;;;;10.50;7.25;;;;;17.79;35.00;100396.81;3582904;40;14628;-57
2021/05/09 07:59:26;;;;;;;;;5.50;5.50;;;;;17.58;34.46;100393.94;3587870;40;13935;-56
2021/05/09 08:01:53;;;;;;;;;6.75;5.25;;;;;17.99;35.38;100403.38;3587609;40;14432;-56
2021/05/09 08:04:20;;;;;;;;;6.00;6.00;;;;;18.00;35.09;100396.94;3587964;40;13939;-58
2021/05/09 08:06:47;;;;;;;;;8.00;5.25;;;;;17.84;34.82;100388.31;3595135;40;13926;-57
2021/05/09 08:09:14;;;;;;;;;8.00;5.75;;;;;17.98;33.65;100385.31;3587669;40;14500;-57
2021/05/09 08:11:41;;;;;;;;;10.50;7.50;;;;;17.85;35.02;100387.31;3587976;40;14038;-58
2021/05/09 08:14:08;;;;;;;;;8.25;6.00;;;;;18.42;34.03;100389.81;3587601;40;13307;-57
2021/05/09 08:16:34;;;;;;;;;6.75;6.75;;;;;18.47;34.19;100385.88;3587481;40;14652;-56
2021/05/09 08:19:01;;;;;;;;;7.75;6.00;;;;;17.84;34.68;100388.31;3587798;40;13165;-58
2021/05/09 08:21:28;;;;;;;;;10.00;6.00;;;;;18.24;34.98;100391.34;3584500;40;13421;-59
2021/05/09 08:23:55;;;;;;;;;7.50;7.00;;;;;18.05;33.32;100392.00;3579997;40;13442;-59
2021/05/09 08:26:22;;;;;;;;;7.00;6.50;;;;;18.16;33.18;100394.69;3581765;40;13284;-57
2021/05/09 08:28:49;;;;;;;;;8.50;7.75;;;;;18.05;33.63;100397.44;3579940;40;13964;-57
2021/05/09 08:31:16;;;;;;;;;8.00;6.50;;;;;18.55;32.53;100386.94;3577176;40;14081;-57
2021/05/09 08:33:44;;;;;;;;;6.25;5.25;;;;;18.74;33.38;100390.84;3583374;40;13262;-57
2021/05/09 08:36:11;;;;;;;;;9.00;8.00;;;;;18.78;33.14;100395.06;3580127;40;12879;-56
2021/05/09 08:38:37;;;;;;;;;10.00;5.00;;;;;18.88;32.85;100398.75;3586020;40;13346;-53
2021/05/09 08:41:04;;;;;;;;;6.75;4.00;;;;;18.40;32.54;100388.22;3577356;40;13655;-56
2021/05/09 08:43:31;;;;;;;;;8.00;5.25;;;;;18.67;32.53;100392.34;3582685;40;12775;-64
2021/05/09 08:45:59;;;;;;;;;10.00;6.00;;;;;18.65;30.21;100401.50;3580415;40;13155;-58
2021/05/09 08:48:28;;;;;;;;;9.00;7.00;;;;;18.47;31.06;100386.72;3582050;40;13403;-57
2021/05/09 08:50:55;;;;;;;;;10.75;7.75;;;;;19.49;31.60;100385.25;3589037;40;13018;-55
2021/05/09 08:53:22;;;;;;;;;9.00;8.50;;;;;18.73;31.71;100400.00;3589275;40;13035;-55
2021/05/09 08:55:49;;;;;;;;;9.50;7.00;;;;;18.71;30.87;100388.38;3581991;40;14023;-58
2021/05/09 08:58:16;;;;;;;;;9.75;6.00;;;;;18.57;31.10;100395.84;3582008;40;13012;-54
2021/05/09 09:00:43;;;;;;;;;6.75;5.25;;;;;18.83;31.40;100390.09;3583632;40;12875;-54
2021/05/09 09:03:14;;;;;;;;;9.00;8.25;;;;;18.77;31.38;100393.31;3581975;40;13301;-53
2021/05/09 09:05:46;;;;;;;;;8.50;6.25;;;;;19.32;31.10;100394.03;3582462;40;13316;-56
2021/05/09 09:08:15;;;;;;;;;10.00;8.00;;;;;19.15;30.65;100389.19;3581226;40;12999;-55
2021/05/09 09:10:53;;;;;;;;;11.00;6.75;;;;;19.38;29.71;100389.91;3581696;40;13434;-56
2021/05/09 09:13:31;;;;;;;;;10.50;7.00;;;;;18.95;30.32;100386.31;3580838;40;13558;-53
2021/05/09 09:16:06;;;;;;;;;9.00;7.00;;;;;18.86;30.10;100376.22;3584068;40;12856;-52
2021/05/09 09:18:41;;;;;;;;;8.00;7.00;;;;;19.69;29.98;100386.25;3583343;40;13294;-58
2021/05/09 09:21:30;;;;;;;;;7.00;7.00;;;;;19.81;29.70;100378.84;3584938;40;12596;-55
2021/05/09 09:24:06;;;;;;;;;7.00;6.00;;;;;18.99;30.01;100376.91;3581106;40;12609;-57
2021/05/09 09:26:52;;;;;;;;;8.75;7.00;;;;;19.01;29.82;100377.66;3588665;40;12739;-56
2021/05/09 09:29:27;;;;;;;;;10.00;7.75;;;;;19.59;29.57;100384.44;3581465;40;13176;-60
2021/05/09 09:31:59;;;;;;;;;10.00;8.25;;;;;19.57;30.10;100386.47;3581020;40;12839;-57
2021/05/09 09:34:49;;;;;;;;;9.00;8.50;;;;;19.25;30.47;100379.25;3580983;40;12874;-58
2021/05/09 09:37:20;;;;;;;;;10.25;8.00;;;;;18.98;30.59;100385.19;3578115;40;12859;-58
2021/05/09 09:39:59;;;;;;;;;6.50;6.25;;;;;19.70;29.84;100389.84;3581259;40;12715;-53
2021/05/09 09:42:47;;;;;;;;;12.75;9.25;;;;;19.23;29.55;100390.25;3589622;40;12788;-53
2021/05/09 09:45:23;;;;;;;;;9.00;7.75;;;;;19.72;30.05;100386.00;3582130;40;12477;-56
2021/05/09 09:47:53;;;;;;;;;12.00;9.00;;;;;19.88;29.11;100379.16;3582090;40;12881;-56
2021/05/09 09:50:58;;;;;;;;;9.75;7.25;;;;;19.50;29.19;100391.56;3588866;40;12894;-54
2021/05/09 09:53:32;;;;;;;;;7.25;7.25;;;;;20.32;28.89;100382.47;3565604;40;12787;-55
2021/05/09 09:56:00;;;;;;;;;10.00;7.75;;;;;20.29;29.00;100372.69;3565455;40;12838;-57
2021/05/09 09:58:47;;;;;;;;;11.75;7.00;;;;;20.18;27.94;100375.53;3574530;40;12235;-56
2021/05/09 10:01:23;;;;;;;;;11.75;6.50;;;;;19.92;28.51;100375.16;3596049;40;12375;-57
2021/05/09 10:03:53;;;;;;;;;8.50;7.75;;;;;20.15;28.81;100381.28;3588797;40;12504;-58
2021/05/09 10:06:22;;;;;;;;;9.50;8.50;;;;;20.08;28.14;100380.09;3595945;40;12618;-56
2021/05/09 10:08:51;;;;;;;;;8.75;7.00;;;;;20.53;27.95;100374.16;3587697;40;12885;-57
2021/05/09 10:11:19;;;;;;;;;10.00;7.25;;;;;20.29;28.60;100360.91;3596234;40;12430;-55
2021/05/09 10:13:47;;;;;;;;;9.50;7.00;;;;;20.44;28.01;100364.13;3596196;40;12378;-57
2021/05/09 10:16:20;;;;;;;;;13.50;8.00;;;;;19.87;29.00;100356.50;3588227;40;12376;-55
2021/05/09 10:18:50;;;;;;;;;11.25;9.00;;;;;20.39;28.52;100362.66;3587219;40;12355;-61
2021/05/09 10:21:17;;;;;;;;;6.50;6.50;;;;;20.33;27.93;100357.78;3587882;40;12125;-61
2021/05/09 10:24:21;;;;;;;;;10.75;7.50;;;;;20.03;28.03;100355.13;3588391;40;12355;-60
2021/05/09 10:26:56;;;;;;;;;10.00;6.00;;;;;20.72;28.07;100363.31;3566984;40;12607;-60
2021/05/09 10:29:36;;;;;;;;;11.00;6.75;;;;;20.12;28.87;100346.97;3588063;40;12646;-61
2021/05/09 10:32:08;;;;;;;;;13.50;10.50;;;;;20.93;28.89;100359.56;3588440;40;12360;-63
2021/05/09 10:34:54;;;;;;;;;9.00;6.00;;;;;20.19;28.62;100347.25;3588550;40;12508;-60
2021/05/09 10:37:39;;;;;;;;;7.25;5.00;;;;;20.66;28.56;100352.94;3588340;40;12191;-60
2021/05/09 10:40:34;;;;;;;;;8.25;5.00;;;;;20.68;28.52;100350.94;3588579;40;12227;-61
2021/05/09 10:43:04;;;;;;;;;8.25;6.50;;;;;21.25;27.74;100348.31;3588099;40;12614;-61
2021/05/09 10:45:39;;;;;;;;;7.25;6.75;;;;;21.18;28.74;100353.50;3587850;40;12080;-61
2021/05/09 10:48:19;;;;;;;;;5.75;5.75;;;;;21.07;27.84;100355.53;3588144;40;11912;-60
2021/05/09 10:51:02;;;;;;;;;7.25;6.75;;;;;20.53;27.74;100353.19;3587347;40;11664;-61
2021/05/09 10:53:35;;;;;;;;;11.00;7.00;;;;;20.67;29.57;100351.97;3582206;40;11951;-61
2021/05/09 10:56:09;;;;;;;;;9.75;7.00;;;;;20.83;28.87;100349.53;3582364;40;12217;-61
2021/05/09 10:58:51;;;;;;;;;8.00;6.25;;;;;20.29;28.94;100345.41;3589789;40;12087;-61
2021/05/09 11:01:20;;;;;;;;;11.00;7.25;;;;;20.41;28.28;100348.03;3588920;40;11806;-60
2021/05/09 11:04:10;;;;;;;;;10.00;6.00;;;;;20.67;28.09;100349.25;3589499;40;12204;-61
2021/05/09 11:06:49;;;;;;;;;11.00;7.50;;;;;20.78;27.46;100335.44;3588122;40;12401;-61
2021/05/09 11:09:22;;;;;;;;;10.25;8.25;;;;;20.66;27.97;100339.31;3592399;39;12000;-61
2021/05/09 11:11:49;;;;;;;;;10.00;8.50;;;;;20.90;28.75;100338.00;3584212;40;11840;-61
2021/05/09 11:14:18;;;;;;;;;6.25;5.00;;;;;20.82;29.51;100331.41;3582150;40;12176;-62
2021/05/09 11:17:03;;;;;;;;;6.50;6.25;;;;;20.94;29.41;100331.28;3584435;40;12380;-61
2021/05/09 11:19:47;;;;;;;;;7.50;6.00;;;;;20.92;29.90;100338.72;3581190;40;12197;-61
2021/05/09 11:22:21;;;;;;;;;8.75;7.25;;;;;20.42;28.83;100323.31;3582953;40;12166;-62
2021/05/09 11:24:55;;;;;;;;;8.75;6.25;;;;;21.46;28.57;100327.16;3578886;40;12189;-61
2021/05/09 11:27:22;;;;;;;;;8.00;7.00;;;;;21.35;29.69;100319.09;3581735;40;11998;-61
2021/05/09 11:29:52;;;;;;;;;7.25;7.25;;;;;20.92;28.98;100325.94;3581501;40;12090;-60
2021/05/09 11:32:22;;;;;;;;;7.00;6.25;;;;;20.77;27.84;100317.34;3583580;40;12579;-59
2021/05/09 11:34:52;;;;;;;;;6.25;6.25;;;;;21.16;26.83;100317.28;3589159;40;12074;-60